Time;durP1;ratioP1;P1;durP2;ratioP2;P2;SDS_P1;SDS_P2;PMS_P1;PMS_P2;Temp;Humidity;BMP_temperature;BMP_pressure;BME280_temperature;BME280_humidity;BME280_pressure;Samples;Min_cycle;Max_cycle;Signal;HPM_P1;HPM_P2
2021/10/25 00:00:44;;;;;;;13.20;7.43;;;10.60;76.40;;;;;;5055765;28;20189;-85
2021/10/25 00:03:09;;;;;;;17.40;7.82;;;10.60;76.10;;;;;;5055778;28;20182;-85
2021/10/25 00:05:38;;;;;;;12.13;7.30;;;10.60;76.20;;;;;;5041864;28;20193;-85
2021/10/25 00:08:03;;;;;;;18.08;8.35;;;10.60;76.20;;;;;;5039692;28;20209;-84
2021/10/25 00:10:29;;;;;;;14.23;8.17;;;10.50;76.00;;;;;;5040058;28;20216;-85
2021/10/25 00:12:55;;;;;;;12.67;6.73;;;10.30;76.20;;;;;;5048569;28;20185;-85
2021/10/25 00:15:21;;;;;;;12.40;7.93;;;10.30;76.80;;;;;;5060295;28;20478;-85
2021/10/25 00:17:47;;;;;;;21.13;8.70;;;10.40;77.10;;;;;;5058946;28;20272;-85
2021/10/25 00:20:13;;;;;;;18.63;7.87;;;10.50;77.20;;;;;;5058361;28;20856;-85
2021/10/25 00:22:40;;;;;;;15.57;8.45;;;10.30;76.80;;;;;;5044804;28;20508;-85
2021/10/25 00:25:06;;;;;;;19.13;8.88;;;10.30;77.20;;;;;;5021364;28;20205;-85
2021/10/25 00:27:33;;;;;;;12.20;8.00;;;10.50;77.30;;;;;;5039016;28;20184;-85
2021/10/25 00:29:59;;;;;;;15.77;8.00;;;10.70;76.90;;;;;;5021401;28;20190;-85
2021/10/25 00:32:24;;;;;;;11.32;7.55;;;10.90;76.80;;;;;;5021469;28;20178;-85
2021/10/25 00:34:50;;;;;;;17.00;8.57;;;10.90;76.10;;;;;;5020364;28;20221;-85
2021/10/25 00:37:16;;;;;;;13.90;7.83;;;10.80;75.70;;;;;;5039415;28;20230;-85
2021/10/25 00:39:42;;;;;;;10.93;7.00;;;10.90;75.70;;;;;;5042132;28;20503;-85
2021/10/25 00:42:08;;;;;;;16.20;7.97;;;11.10;75.70;;;;;;5054064;28;20430;-85
2021/10/25 00:44:33;;;;;;;9.73;6.73;;;11.10;75.90;;;;;;5063430;28;20447;-85
2021/10/25 00:47:00;;;;;;;14.00;7.87;;;11.20;75.70;;;;;;5062553;28;20427;-84
2021/10/25 00:49:26;;;;;;;9.13;6.63;;;11.30;75.00;;;;;;5063962;28;20239;-85
2021/10/25 00:51:53;;;;;;;13.23;7.18;;;11.40;74.50;;;;;;5065919;28;20239;-84
2021/10/25 00:54:20;;;;;;;13.30;8.18;;;11.50;74.50;;;;;;5069986;28;20197;-84
2021/10/25 00:56:46;;;;;;;13.23;7.40;;;11.50;74.00;;;;;;5063747;28;20177;-85
2021/10/25 00:59:13;;;;;;;15.82;6.97;;;11.50;74.00;;;;;;5042594;28;20241;-85
2021/10/25 01:01:39;;;;;;;12.48;8.57;;;11.60;73.70;;;;;;5058662;28;20176;-85
2021/10/25 01:04:09;;;;;;;15.73;7.65;;;11.50;73.50;;;;;;5039464;28;20197;-85
2021/10/25 01:06:40;;;;;;;14.00;7.28;;;11.30;73.60;;;;;;5053125;28;20189;-85
2021/10/25 01:09:10;;;;;;;12.43;7.40;;;11.00;74.10;;;;;;5056932;28;20177;-85
2021/10/25 01:11:37;;;;;;;13.15;7.95;;;11.20;75.00;;;;;;5056775;28;20169;-85
2021/10/25 01:14:03;;;;;;;11.30;7.35;;;11.20;74.90;;;;;;5057507;28;20730;-85
2021/10/25 01:16:29;;;;;;;11.57;7.73;;;11.30;74.80;;;;;;5057318;28;20181;-85
2021/10/25 01:18:56;;;;;;;17.97;7.83;;;11.20;74.60;;;;;;5058717;28;20403;-85
2021/10/25 01:21:22;;;;;;;13.82;7.43;;;11.40;74.60;;;;;;5040577;28;20177;-85
2021/10/25 01:23:50;;;;;;;13.63;7.97;;;11.40;74.60;;;;;;5068694;28;20201;-85
2021/10/25 01:26:16;;;;;;;12.85;7.13;;;11.60;74.50;;;;;;5057345;28;20464;-85
2021/10/25 01:28:42;;;;;;;15.15;8.18;;;11.60;74.00;;;;;;5057019;28;20181;-85
2021/10/25 01:31:08;;;;;;;13.70;7.40;;;11.70;74.00;;;;;;5066487;28;20162;-85
2021/10/25 01:33:35;;;;;;;16.52;7.97;;;11.70;74.00;;;;;;5057013;28;20495;-85
2021/10/25 01:36:02;;;;;;;17.30;6.95;;;11.70;74.10;;;;;;5056616;28;20182;-84
2021/10/25 01:38:28;;;;;;;11.57;6.47;;;11.70;74.40;;;;;;5056966;28;20174;-85
2021/10/25 01:40:54;;;;;;;13.10;7.83;;;11.90;73.90;;;;;;5052674;28;20225;-85
2021/10/25 01:43:20;;;;;;;11.63;7.87;;;11.90;73.30;;;;;;5056736;28;20204;-85
2021/10/25 01:45:47;;;;;;;12.05;7.20;;;11.90;73.30;;;;;;5057720;28;20443;-85
2021/10/25 01:48:13;;;;;;;13.50;7.35;;;11.80;73.50;;;;;;5057481;28;20211;-85
2021/10/25 01:50:39;;;;;;;16.33;8.65;;;11.90;73.90;;;;;;5056170;28;20610;-84
2021/10/25 01:53:06;;;;;;;12.85;7.32;;;11.80;74.00;;;;;;5056018;28;20557;-85
2021/10/25 01:55:32;;;;;;;13.80;6.75;;;11.90;73.80;;;;;;5056344;28;20228;-85
2021/10/25 01:57:58;;;;;;;15.18;7.82;;;11.70;74.00;;;;;;5057467;28;20265;-84
2021/10/25 02:00:25;;;;;;;17.98;7.13;;;11.70;74.10;;;;;;5060107;28;20220;-84
2021/10/25 02:02:51;;;;;;;13.45;8.00;;;11.70;74.20;;;;;;5056917;28;20185;-85
2021/10/25 02:05:18;;;;;;;17.92;7.03;;;11.40;74.50;;;;;;5041068;28;20265;-85
2021/10/25 02:07:46;;;;;;;11.05;7.05;;;11.50;75.20;;;;;;5060818;28;20188;-84
2021/10/25 02:10:12;;;;;;;8.70;6.10;;;11.60;76.00;;;;;;5056170;28;20184;-84
2021/10/25 02:12:38;;;;;;;13.30;7.60;;;11.60;75.30;;;;;;5080177;28;20165;-84
2021/10/25 02:15:04;;;;;;;13.03;7.03;;;11.80;75.20;;;;;;5076001;28;20477;-85
2021/10/25 02:17:30;;;;;;;10.85;7.88;;;11.80;74.90;;;;;;5075978;28;20177;-85
2021/10/25 02:19:56;;;;;;;17.77;7.47;;;11.80;74.70;;;;;;5068152;28;20560;-86
2021/10/25 02:22:23;;;;;;;12.93;7.27;;;11.70;74.90;;;;;;5055984;28;20419;-86
2021/10/25 02:24:49;;;;;;;12.68;8.05;;;11.70;75.10;;;;;;5054430;28;20442;-84
2021/10/25 02:27:15;;;;;;;17.85;8.55;;;11.60;75.10;;;;;;5036410;28;20182;-84
2021/10/25 02:29:41;;;;;;;14.80;7.85;;;11.50;75.50;;;;;;5051319;28;20220;-83
2021/10/25 02:32:07;;;;;;;11.57;6.60;;;11.40;75.50;;;;;;5051709;28;20188;-83
2021/10/25 02:34:34;;;;;;;20.20;7.65;;;11.60;75.90;;;;;;5035444;28;20478;-84
2021/10/25 02:37:00;;;;;;;16.23;6.78;;;11.80;75.90;;;;;;5036271;28;20276;-84
2021/10/25 02:39:28;;;;;;;14.10;7.77;;;11.90;75.30;;;;;;5050861;28;20202;-84
2021/10/25 02:41:54;;;;;;;15.45;7.78;;;12.10;74.90;;;;;;5051519;28;20181;-84
2021/10/25 02:44:20;;;;;;;12.35;7.88;;;12.10;74.50;;;;;;5035792;28;20251;-84
2021/10/25 02:46:48;;;;;;;13.70;8.83;;;12.10;74.40;;;;;;5051310;28;20177;-84
2021/10/25 02:49:14;;;;;;;12.30;7.97;;;12.30;74.10;;;;;;5036084;28;20802;-84
2021/10/25 02:51:40;;;;;;;13.13;8.32;;;12.10;73.60;;;;;;5035061;28;20556;-85
2021/10/25 02:54:06;;;;;;;13.68;7.32;;;11.90;74.10;;;;;;5050939;28;20198;-84
2021/10/25 02:56:32;;;;;;;13.40;8.00;;;11.80;74.50;;;;;;5051091;28;20178;-84
2021/10/25 02:58:57;;;;;;;13.50;7.63;;;11.70;74.80;;;;;;5051239;28;20184;-84
2021/10/25 03:01:23;;;;;;;17.03;8.00;;;11.60;75.20;;;;;;5036994;28;20178;-84
2021/10/25 03:03:49;;;;;;;14.30;7.73;;;11.60;75.60;;;;;;5035269;28;20662;-84
2021/10/25 03:06:15;;;;;;;16.47;8.67;;;11.60;75.70;;;;;;5051877;28;20189;-84
2021/10/25 03:08:40;;;;;;;17.37;8.40;;;11.40;75.60;;;;;;5051626;28;20182;-84
2021/10/25 03:11:07;;;;;;;19.13;8.83;;;11.50;75.80;;;;;;5052171;28;20511;-85
2021/10/25 03:13:33;;;;;;;13.07;7.20;;;11.50;75.70;;;;;;5035558;28;20956;-83
2021/10/25 03:15:59;;;;;;;11.25;7.97;;;11.30;76.10;;;;;;5037799;28;20583;-84
2021/10/25 03:18:25;;;;;;;15.60;8.35;;;11.30;76.60;;;;;;5057448;28;20185;-84
2021/10/25 03:20:51;;;;;;;14.40;7.53;;;11.30;76.60;;;;;;5052407;28;20177;-84
2021/10/25 03:23:17;;;;;;;11.70;7.63;;;11.30;76.50;;;;;;5051583;28;20198;-84
2021/10/25 03:25:43;;;;;;;18.33;7.97;;;11.40;76.20;;;;;;5037319;28;20238;-84
2021/10/25 03:28:09;;;;;;;14.37;7.27;;;11.60;76.10;;;;;;5052325;28;20477;-84
2021/10/25 03:30:35;;;;;;;16.98;8.15;;;11.90;75.80;;;;;;5036571;28;20503;-84
2021/10/25 03:33:02;;;;;;;18.53;7.10;;;11.80;75.00;;;;;;5056514;28;20680;-84
2021/10/25 03:35:28;;;;;;;14.00;7.43;;;11.60;75.10;;;;;;5059459;28;20193;-84
2021/10/25 03:37:56;;;;;;;16.15;8.00;;;11.60;75.20;;;;;;5054745;28;20497;-84
2021/10/25 03:40:22;;;;;;;11.73;7.60;;;11.60;75.20;;;;;;5056836;28;20269;-85
2021/10/25 03:42:50;;;;;;;11.20;7.72;;;11.50;75.50;;;;;;5040693;28;20201;-85
2021/10/25 03:45:34;;;;;;;21.65;8.10;;;11.50;75.70;;;;;;5054968;28;20201;-85
2021/10/25 03:48:08;;;;;;;14.38;8.70;;;11.50;75.80;;;;;;5055321;28;20174;-85
2021/10/25 03:50:36;;;;;;;12.02;7.68;;;11.50;75.70;;;;;;5055027;28;20566;-85
2021/10/25 03:53:16;;;;;;;14.48;7.85;;;11.60;75.90;;;;;;5057496;28;20189;-85
2021/10/25 03:56:25;;;;;;;13.02;7.20;;;11.50;75.70;;;;;;5037902;28;20209;-85
2021/10/25 04:28:37;;;;;;;14.93;8.40;;;11.80;82.50;;;;;;5038732;28;20209;-85
2021/10/25 04:31:03;;;;;;;18.20;10.50;;;11.70;83.00;;;;;;5053063;28;20182;-85
2021/10/25 04:33:28;;;;;;;16.77;8.83;;;11.60;83.60;;;;;;5037129;28;20200;-84
2021/10/25 04:35:54;;;;;;;17.77;9.77;;;11.60;84.10;;;;;;5053951;28;20491;-84
2021/10/25 04:38:20;;;;;;;19.90;11.60;;;11.40;84.70;;;;;;5053188;28;20224;-84
2021/10/25 04:40:46;;;;;;;17.48;10.82;;;11.50;85.30;;;;;;5054230;28;20169;-84
2021/10/25 04:43:17;;;;;;;18.63;10.70;;;11.50;85.60;;;;;;5052813;28;20180;-84
2021/10/25 04:45:44;;;;;;;21.10;11.43;;;11.30;85.80;;;;;;5056015;28;20562;-84
2021/10/25 04:48:10;;;;;;;15.35;11.43;;;11.10;86.20;;;;;;5056518;28;20264;-84
2021/10/25 04:50:36;;;;;;;17.10;10.27;;;10.70;87.20;;;;;;5056283;28;20209;-85
2021/10/25 04:53:03;;;;;;;16.55;10.25;;;10.60;88.30;;;;;;5055988;28;20419;-84
2021/10/25 04:55:28;;;;;;;16.95;11.82;;;10.70;89.00;;;;;;5058500;28;20211;-84
2021/10/25 04:57:54;;;;;;;19.67;12.00;;;10.50;89.30;;;;;;5058556;28;20173;-85
2021/10/25 05:00:20;;;;;;;18.20;10.97;;;10.60;89.60;;;;;;5042672;28;20428;-84
2021/10/25 05:02:46;;;;;;;18.37;11.00;;;10.70;89.90;;;;;;5058494;28;20191;-83
2021/10/25 05:05:11;;;;;;;21.50;11.80;;;10.80;89.90;;;;;;5056661;28;21176;-84
2021/10/25 05:07:37;;;;;;;26.00;11.20;;;11.00;89.90;;;;;;5055145;28;20185;-84
2021/10/25 05:10:04;;;;;;;21.15;11.43;;;11.10;89.80;;;;;;5056930;28;20446;-83
2021/10/25 05:12:31;;;;;;;18.30;11.05;;;11.10;89.50;;;;;;5060670;28;20177;-84
2021/10/25 05:14:57;;;;;;;23.90;11.65;;;11.30;89.40;;;;;;5057369;28;20236;-84
2021/10/25 05:17:23;;;;;;;17.55;11.52;;;11.20;88.70;;;;;;5056326;28;20181;-84
2021/10/25 05:19:49;;;;;;;16.75;10.13;;;11.30;88.50;;;;;;5056654;28;20227;-84
2021/10/25 05:22:15;;;;;;;19.10;9.70;;;11.40;88.20;;;;;;5055375;28;20702;-85
2021/10/25 05:24:42;;;;;;;16.50;9.90;;;11.40;87.40;;;;;;5053873;28;20243;-85
2021/10/25 05:27:09;;;;;;;19.60;11.00;;;11.40;86.90;;;;;;5051860;28;21022;-85
2021/10/25 05:29:35;;;;;;;18.65;9.70;;;11.50;86.50;;;;;;5036164;28;20584;-85
2021/10/25 05:32:01;;;;;;;22.10;10.43;;;11.50;86.10;;;;;;5036455;28;20204;-86
2021/10/25 05:34:27;;;;;;;18.65;11.60;;;11.40;86.00;;;;;;5049991;28;20197;-85
2021/10/25 05:36:52;;;;;;;19.93;10.73;;;11.40;86.10;;;;;;5054915;28;20181;-87
2021/10/25 05:39:19;;;;;;;14.07;10.00;;;11.50;86.30;;;;;;5053587;28;20821;-86
2021/10/25 05:41:45;;;;;;;15.48;9.07;;;11.60;85.50;;;;;;5054506;28;20173;-87
2021/10/25 05:44:11;;;;;;;17.70;9.73;;;11.50;84.50;;;;;;5054086;28;20208;-85
2021/10/25 05:46:38;;;;;;;15.60;9.15;;;11.60;84.30;;;;;;5050544;28;20202;-86
2021/10/25 05:49:04;;;;;;;18.88;10.50;;;11.80;84.30;;;;;;5040623;28;20738;-86
2021/10/25 05:51:30;;;;;;;18.20;10.35;;;11.70;83.80;;;;;;5051552;28;20259;-87
2021/10/25 05:53:58;;;;;;;12.87;8.40;;;11.70;83.30;;;;;;5037336;28;20197;-86
2021/10/25 05:56:26;;;;;;;13.88;9.60;;;11.80;83.00;;;;;;5040472;28;20459;-86
2021/10/25 05:58:52;;;;;;;20.25;10.98;;;11.80;83.20;;;;;;5054969;28;20223;-86
2021/10/25 06:01:21;;;;;;;20.15;9.95;;;11.80;82.80;;;;;;5045854;28;20630;-86
2021/10/25 06:03:49;;;;;;;16.70;9.00;;;11.80;82.50;;;;;;5066774;28;20251;-87
2021/10/25 06:06:15;;;;;;;16.27;8.60;;;11.70;82.00;;;;;;5051316;28;20244;-86
2021/10/25 06:08:41;;;;;;;20.50;9.27;;;11.70;81.70;;;;;;5056947;28;20181;-86
2021/10/25 06:11:08;;;;;;;16.10;8.30;;;11.60;81.50;;;;;;5058932;28;20640;-86
2021/10/25 06:13:38;;;;;;;15.60;8.68;;;11.80;81.60;;;;;;5053421;28;20243;-86
2021/10/25 06:16:36;;;;;;;14.05;7.95;;;11.90;81.70;;;;;;5053798;28;20228;-87
2021/10/25 06:18:50;;;;;;;14.85;8.80;;;11.90;81.40;;;;;;5039764;28;20657;-86
2021/10/25 06:21:16;;;;;;;17.63;9.27;;;11.90;81.60;;;;;;5070757;28;20181;-86
2021/10/25 06:23:42;;;;;;;19.63;8.33;;;12.00;81.30;;;;;;5039898;28;20448;-86
2021/10/25 06:26:08;;;;;;;12.17;8.83;;;12.10;80.80;;;;;;5054912;28;20268;-86
2021/10/25 06:28:34;;;;;;;14.63;8.60;;;12.10;80.40;;;;;;5055012;28;20259;-87
2021/10/25 06:31:04;;;;;;;14.23;8.20;;;12.10;80.50;;;;;;5052094;28;20432;-86
2021/10/25 06:33:36;;;;;;;18.20;9.98;;;12.00;80.20;;;;;;5035208;28;20535;-86
2021/10/25 06:36:04;;;;;;;15.30;7.88;;;12.10;80.10;;;;;;5038249;28;20186;-86
2021/10/25 06:38:33;;;;;;;15.60;8.93;;;12.10;80.00;;;;;;5045820;28;20177;-86
2021/10/25 06:41:00;;;;;;;13.40;7.55;;;12.00;79.70;;;;;;5073855;28;20652;-86
2021/10/25 06:43:27;;;;;;;16.92;7.47;;;12.00;79.70;;;;;;5059989;28;20209;-87
2021/10/25 06:45:54;;;;;;;14.88;8.30;;;12.10;79.90;;;;;;5061012;28;20215;-87
2021/10/25 06:48:21;;;;;;;10.23;7.30;;;12.10;80.00;;;;;;5064509;28;20218;-87
2021/10/25 06:50:46;;;;;;;14.77;8.45;;;12.20;80.20;;;;;;5060783;28;20181;-86
2021/10/25 06:53:14;;;;;;;17.13;7.43;;;12.30;80.10;;;;;;5055077;28;20730;-86
2021/10/25 06:55:40;;;;;;;12.98;8.70;;;12.10;79.20;;;;;;5050232;28;20197;-86
2021/10/25 06:58:07;;;;;;;13.93;7.32;;;12.00;79.30;;;;;;5040764;28;20189;-87
2021/10/25 07:00:33;;;;;;;12.30;8.10;;;12.00;79.60;;;;;;5040178;28;20598;-86
2021/10/25 07:02:59;;;;;;;19.37;8.57;;;12.20;79.90;;;;;;5039194;28;20220;-87
2021/10/25 07:05:26;;;;;;;12.27;8.27;;;12.40;79.90;;;;;;5056477;28;20436;-86
2021/10/25 07:07:53;;;;;;;18.08;9.25;;;12.30;79.30;;;;;;5057083;28;20189;-87
2021/10/25 07:10:19;;;;;;;14.90;7.32;;;12.30;79.00;;;;;;5056482;28;20181;-86
2021/10/25 07:12:45;;;;;;;16.50;7.70;;;12.10;78.80;;;;;;5068170;28;20195;-87
2021/10/25 07:15:12;;;;;;;12.45;7.70;;;12.20;80.20;;;;;;5064841;28;20209;-86
2021/10/25 07:17:48;;;;;;;12.65;7.38;;;12.30;79.40;;;;;;5061274;28;20227;-86
2021/10/25 07:20:39;;;;;;;11.13;6.53;;;12.50;79.40;;;;;;5069637;28;20173;-86
2021/10/25 08:01:53;;;;;;;11.27;6.25;;;12.90;77.60;;;;;;5071091;28;20208;-86
2021/10/25 08:09:32;;;;;;;13.18;7.18;;;13.10;77.40;;;;;;5039347;28;20220;-87
2021/10/25 08:12:00;;;;;;;9.80;6.25;;;13.20;77.10;;;;;;5037059;28;20211;-86
2021/10/25 08:14:35;;;;;;;11.63;8.18;;;13.10;77.30;;;;;;5041917;28;20205;-87
2021/10/25 08:17:02;;;;;;;10.23;6.60;;;13.00;77.40;;;;;;5039969;28;20168;-86
2021/10/25 08:19:33;;;;;;;9.07;6.15;;;13.20;77.50;;;;;;5023922;28;20343;-86
2021/10/25 08:22:11;;;;;;;9.13;5.97;;;13.10;77.50;;;;;;5041115;28;20173;-86
2021/10/25 08:24:43;;;;;;;11.88;6.65;;;12.90;77.80;;;;;;5058117;28;20195;-86
2021/10/25 08:27:10;;;;;;;7.82;6.25;;;12.90;78.10;;;;;;5039617;28;20289;-86
2021/10/25 08:29:37;;;;;;;10.95;6.97;;;13.00;78.30;;;;;;5057534;28;20307;-86
2021/10/25 08:39:54;;;;;;;9.57;6.72;;;13.20;77.10;;;;;;5057128;28;20268;-86
2021/10/25 08:42:29;;;;;;;5.78;5.18;;;13.10;77.30;;;;;;5039267;28;20197;-86
2021/10/25 08:45:09;;;;;;;7.22;6.35;;;13.00;77.80;;;;;;5039127;28;20246;-86
2021/10/25 08:47:41;;;;;;;7.90;6.35;;;13.10;78.20;;;;;;5055995;28;20175;-86
2021/10/25 08:50:10;;;;;;;7.82;5.43;;;13.10;78.10;;;;;;5037632;28;20186;-87
2021/10/25 08:52:37;;;;;;;8.63;5.95;;;13.20;78.20;;;;;;5035584;28;20648;-86
2021/10/25 08:55:05;;;;;;;14.10;5.65;;;13.30;78.00;;;;;;5037578;28;20629;-87
2021/10/25 08:57:32;;;;;;;12.60;6.75;;;13.50;77.60;;;;;;5057249;28;20237;-87
2021/10/25 08:59:59;;;;;;;11.23;6.43;;;13.60;77.10;;;;;;5039431;28;20194;-87
2021/10/25 09:02:27;;;;;;;7.35;5.60;;;13.40;76.70;;;;;;5056830;28;20632;-86
2021/10/25 09:05:08;;;;;;;13.77;6.20;;;13.40;76.90;;;;;;5038660;28;20228;-87
2021/10/25 09:07:51;;;;;;;8.70;5.65;;;13.40;76.90;;;;;;5035192;28;20190;-86
2021/10/25 09:10:25;;;;;;;6.97;5.30;;;13.40;77.00;;;;;;5036472;28;20186;-86
2021/10/25 09:13:00;;;;;;;7.95;6.53;;;13.50;77.20;;;;;;5028768;28;20176;-87
2021/10/25 09:15:28;;;;;;;8.13;6.18;;;13.60;77.20;;;;;;5038037;28;20204;-86
2021/10/25 09:17:54;;;;;;;8.13;6.13;;;13.80;76.70;;;;;;5056635;28;20173;-86
2021/10/25 09:20:20;;;;;;;7.17;6.47;;;13.80;76.60;;;;;;5038776;28;20178;-86
2021/10/25 09:22:47;;;;;;;14.18;6.10;;;13.80;76.70;;;;;;5039656;28;20430;-86
2021/10/25 09:25:13;;;;;;;9.02;6.20;;;14.00;76.30;;;;;;5057080;28;20193;-86
2021/10/25 09:27:46;;;;;;;12.80;7.07;;;14.00;75.70;;;;;;5038353;28;20652;-86
2021/10/25 09:30:15;;;;;;;11.68;7.07;;;14.00;75.70;;;;;;5038933;28;20186;-86
2021/10/25 09:32:42;;;;;;;9.50;6.18;;;14.20;75.40;;;;;;5018955;28;20200;-86
2021/10/25 09:35:22;;;;;;;15.90;8.05;;;14.20;74.90;;;;;;5030185;28;20219;-86
2021/10/25 09:37:57;;;;;;;10.48;6.68;;;14.10;74.90;;;;;;5039318;28;20173;-86
2021/10/25 09:51:17;;;;;;;11.68;7.65;;;14.50;74.70;;;;;;5040602;28;20605;-86
2021/10/25 09:53:46;;;;;;;9.43;7.10;;;14.40;74.70;;;;;;5045331;28;20193;-86
2021/10/25 09:56:15;;;;;;;9.80;6.90;;;14.40;74.80;;;;;;5015975;28;20464;-86
2021/10/25 09:58:47;;;;;;;21.58;6.88;;;14.20;75.00;;;;;;5051842;28;20181;-86
2021/10/25 10:01:14;;;;;;;18.02;7.15;;;14.40;75.10;;;;;;5032652;28;20264;-86
2021/10/25 10:03:45;;;;;;;15.27;6.82;;;14.10;75.20;;;;;;5027849;28;20209;-86
2021/10/25 10:06:11;;;;;;;11.35;6.65;;;14.20;75.50;;;;;;5030068;28;20194;-86
2021/10/25 10:08:39;;;;;;;11.65;7.10;;;14.10;75.60;;;;;;5058250;28;20182;-86
2021/10/25 10:11:05;;;;;;;8.18;7.22;;;13.80;76.20;;;;;;5056260;28;20663;-86
2021/10/25 10:13:31;;;;;;;12.65;7.22;;;13.90;76.80;;;;;;5050852;28;20205;-86
2021/10/25 10:15:58;;;;;;;8.32;7.15;;;13.80;77.00;;;;;;5051215;28;20690;-86
2021/10/25 10:18:30;;;;;;;10.57;7.97;;;14.00;77.30;;;;;;5034875;28;20181;-86
2021/10/25 10:21:00;;;;;;;11.60;7.40;;;14.30;77.60;;;;;;5035107;28;20177;-86
2021/10/25 10:23:26;;;;;;;10.80;6.72;;;14.50;77.10;;;;;;5034043;28;20190;-86
2021/10/25 10:26:00;;;;;;;11.68;8.55;;;14.40;76.50;;;;;;5036248;28;20642;-86
2021/10/25 10:28:40;;;;;;;12.05;8.20;;;14.60;76.80;;;;;;5047418;28;20197;-86
2021/10/25 10:31:12;;;;;;;12.70;7.28;;;14.60;76.00;;;;;;5052269;28;20181;-86
2021/10/25 10:33:40;;;;;;;11.95;7.95;;;14.40;75.50;;;;;;5033899;28;20206;-86
2021/10/25 10:36:14;;;;;;;9.57;7.07;;;14.30;76.50;;;;;;5050691;28;20626;-86
2021/10/25 10:39:05;;;;;;;10.60;7.85;;;14.50;76.30;;;;;;5036029;28;20633;-86
2021/10/25 10:41:36;;;;;;;9.70;7.93;;;14.30;76.90;;;;;;5052349;28;20209;-86
2021/10/25 10:44:14;;;;;;;11.43;7.30;;;14.30;77.20;;;;;;5041382;28;20201;-86
2021/10/25 10:46:46;;;;;;;9.52;7.13;;;14.50;77.20;;;;;;5057689;28;20553;-86
2021/10/25 10:49:55;;;;;;;12.35;7.32;;;14.60;76.70;;;;;;5053167;28;20181;-86
2021/10/25 10:52:39;;;;;;;10.75;7.25;;;14.80;76.20;;;;;;4995176;28;20205;-86
2021/10/25 10:55:20;;;;;;;15.73;7.35;;;14.70;76.30;;;;;;4994658;28;20286;-86
2021/10/25 11:00:38;;;;;;;12.35;7.75;;;14.40;77.20;;;;;;5054018;28;20219;-86
2021/10/25 11:03:23;;;;;;;10.43;8.88;;;14.30;77.40;;;;;;5049697;28;20180;-86
2021/10/25 11:05:56;;;;;;;9.48;7.38;;;14.40;77.80;;;;;;5054683;28;20192;-86
2021/10/25 11:08:24;;;;;;;9.32;7.60;;;14.10;78.10;;;;;;5054121;28;20264;-86
2021/10/25 11:11:11;;;;;;;10.07;7.13;;;14.30;78.50;;;;;;5053103;28;20219;-86
2021/10/25 11:13:46;;;;;;;11.60;6.90;;;14.90;77.70;;;;;;5044489;28;20280;-86
2021/10/25 11:19:01;;;;;;;11.38;7.53;;;15.20;75.40;;;;;;5036480;28;20317;-86
2021/10/25 11:21:46;;;;;;;11.05;7.13;;;15.30;74.70;;;;;;5050991;28;20549;-87
2021/10/25 11:24:15;;;;;;;10.35;7.10;;;15.50;75.30;;;;;;5050762;28;20201;-86
2021/10/25 11:26:48;;;;;;;15.70;7.55;;;15.30;74.00;;;;;;5033818;28;20216;-86
2021/10/25 11:29:24;;;;;;;13.25;7.60;;;15.10;74.70;;;;;;5035643;28;20189;-86
2021/10/25 11:32:24;;;;;;;8.38;6.88;;;14.90;75.00;;;;;;5035353;28;20158;-86
2021/10/25 11:34:55;;;;;;;13.82;6.93;;;14.80;75.30;;;;;;5048351;28;20206;-86
2021/10/25 11:37:22;;;;;;;11.48;6.95;;;14.80;76.50;;;;;;5050786;28;20211;-87
2021/10/25 11:40:02;;;;;;;11.30;7.40;;;15.30;76.40;;;;;;5050399;28;20265;-86
2021/10/25 11:42:34;;;;;;;9.63;6.60;;;15.30;75.50;;;;;;5069831;28;20184;-86
2021/10/25 11:45:11;;;;;;;13.85;7.43;;;15.50;75.30;;;;;;5054740;28;20664;-86
2021/10/25 11:47:45;;;;;;;9.10;6.95;;;15.80;74.40;;;;;;5052880;28;20177;-86
2021/10/25 11:50:30;;;;;;;7.53;6.57;;;16.00;73.50;;;;;;5052740;28;20177;-86
2021/10/25 11:53:03;;;;;;;12.27;6.70;;;15.40;73.70;;;;;;5056955;28;20264;-87
2021/10/25 11:55:34;;;;;;;14.45;7.30;;;15.90;74.10;;;;;;5056736;28;20207;-86
2021/10/25 11:58:08;;;;;;;10.48;7.95;;;16.00;73.40;;;;;;5069487;28;20199;-86
2021/10/25 12:00:39;;;;;;;7.63;5.85;;;16.20;72.70;;;;;;5057605;28;20548;-86
2021/10/25 12:03:10;;;;;;;7.55;6.20;;;16.10;72.60;;;;;;5030048;28;20213;-86
2021/10/25 12:05:36;;;;;;;10.55;6.88;;;16.30;72.50;;;;;;5072375;28;20200;-86
2021/10/25 12:08:03;;;;;;;7.22;5.82;;;16.50;72.10;;;;;;5066367;28;20188;-87
2021/10/25 12:10:32;;;;;;;6.90;5.18;;;16.50;71.10;;;;;;5062659;28;20721;-87
2021/10/25 12:13:00;;;;;;;8.20;5.90;;;16.60;71.30;;;;;;5059251;28;20200;-86
2021/10/25 12:15:29;;;;;;;6.80;5.38;;;16.60;70.70;;;;;;5052461;28;20213;-87
2021/10/25 12:18:00;;;;;;;7.60;5.88;;;16.10;71.10;;;;;;5036807;28;20173;-87
2021/10/25 12:20:32;;;;;;;10.68;6.28;;;16.40;71.60;;;;;;5052319;28;20228;-87
2021/10/25 12:23:02;;;;;;;5.53;5.03;;;16.30;71.30;;;;;;5051459;28;20528;-87
2021/10/25 12:25:30;;;;;;;7.22;5.53;;;15.80;71.80;;;;;;5035644;28;20193;-87
2021/10/25 12:27:59;;;;;;;7.25;5.57;;;16.10;72.60;;;;;;5056693;28;20181;-87
2021/10/25 12:30:27;;;;;;;9.50;6.50;;;16.00;71.80;;;;;;5051870;28;20641;-87
2021/10/25 12:33:02;;;;;;;9.02;6.20;;;15.80;72.30;;;;;;5070943;28;20220;-86
2021/10/25 12:35:41;;;;;;;7.82;5.95;;;15.90;72.60;;;;;;5055252;28;20192;-87
2021/10/25 12:38:11;;;;;;;6.85;6.15;;;16.10;72.70;;;;;;5056536;28;20170;-87
2021/10/25 12:40:40;;;;;;;7.43;5.72;;;16.40;72.20;;;;;;5056655;28;20184;-87
2021/10/25 12:43:07;;;;;;;10.20;6.43;;;16.60;71.00;;;;;;5038691;28;20224;-87
2021/10/25 12:45:43;;;;;;;8.55;5.82;;;15.90;71.50;;;;;;5050427;28;20178;-87
2021/10/25 12:48:12;;;;;;;6.32;5.57;;;15.50;72.80;;;;;;5053720;28;20185;-87
2021/10/25 12:50:45;;;;;;;8.75;5.50;;;15.90;73.10;;;;;;5052685;28;20697;-87
2021/10/25 12:53:13;;;;;;;7.15;5.53;;;16.30;73.00;;;;;;5036255;28;20190;-87
2021/10/25 12:55:40;;;;;;;7.45;6.00;;;16.40;72.00;;;;;;5052844;28;20193;-87
2021/10/25 12:58:11;;;;;;;6.88;6.07;;;16.10;72.10;;;;;;5054227;28;20575;-87
2021/10/25 13:00:38;;;;;;;7.63;5.40;;;15.80;72.90;;;;;;5039024;28;20178;-87
2021/10/25 13:03:11;;;;;;;11.55;5.55;;;16.20;72.90;;;;;;5065959;28;20253;-87
2021/10/25 13:05:39;;;;;;;7.07;6.38;;;16.40;72.50;;;;;;5070054;28;20204;-87
2021/10/25 13:08:07;;;;;;;7.53;5.47;;;16.40;71.40;;;;;;5046531;28;20186;-87
2021/10/25 13:10:36;;;;;;;6.30;5.65;;;16.60;71.60;;;;;;5039910;28;20177;-87
2021/10/25 13:13:04;;;;;;;7.32;5.88;;;16.40;71.00;;;;;;5066128;28;20185;-87
2021/10/25 13:15:31;;;;;;;7.43;5.90;;;16.50;71.10;;;;;;5056393;28;20255;-87
2021/10/25 13:17:59;;;;;;;5.80;5.28;;;16.30;70.90;;;;;;5055078;28;20205;-87
2021/10/25 13:20:27;;;;;;;11.15;6.50;;;16.40;71.40;;;;;;5053206;28;20216;-87
2021/10/25 13:22:57;;;;;;;10.85;5.50;;;16.50;71.40;;;;;;5045980;28;20185;-87
2021/10/25 13:25:24;;;;;;;8.43;6.00;;;16.50;71.50;;;;;;5051420;28;20224;-87
2021/10/25 13:27:51;;;;;;;7.30;6.20;;;16.20;71.20;;;;;;5051600;28;20185;-88
2021/10/25 13:30:18;;;;;;;8.15;6.35;;;15.70;71.90;;;;;;5038458;28;20235;-86
2021/10/25 13:32:45;;;;;;;6.28;5.65;;;15.80;73.10;;;;;;5051438;28;20260;-86
2021/10/25 13:35:12;;;;;;;6.65;5.45;;;16.00;72.80;;;;;;5050586;28;20202;-86
2021/10/25 13:37:38;;;;;;;8.65;6.28;;;16.10;72.40;;;;;;5050761;28;20181;-86
2021/10/25 13:40:06;;;;;;;9.93;7.63;;;16.20;72.40;;;;;;5056706;28;20224;-86
2021/10/25 13:42:33;;;;;;;11.10;6.30;;;16.10;71.70;;;;;;5069471;28;20205;-86
2021/10/25 13:44:58;;;;;;;11.38;6.22;;;16.30;71.80;;;;;;5062812;28;20194;-86
2021/10/25 13:47:26;;;;;;;6.17;5.00;;;16.40;71.40;;;;;;5078528;28;20208;-86
2021/10/25 13:49:52;;;;;;;6.03;5.53;;;16.50;71.30;;;;;;5067287;28;20436;-86
2021/10/25 13:52:18;;;;;;;6.57;5.90;;;16.50;71.10;;;;;;5041367;28;20585;-86
2021/10/25 13:54:46;;;;;;;12.33;7.23;;;16.50;71.60;;;;;;5048884;28;20288;-86
2021/10/25 13:57:14;;;;;;;11.55;6.25;;;16.60;71.00;;;;;;5051286;28;20420;-87
2021/10/25 13:59:41;;;;;;;7.28;6.55;;;16.50;71.30;;;;;;5035042;28;20581;-86
2021/10/25 14:02:12;;;;;;;16.75;6.32;;;16.50;70.70;;;;;;5036279;28;20688;-86
2021/10/25 14:04:50;;;;;;;11.32;8.02;;;16.20;70.70;;;;;;5034032;28;20225;-86
2021/10/25 14:07:21;;;;;;;10.02;5.70;;;16.50;71.50;;;;;;5033855;28;20177;-86
2021/10/25 14:09:57;;;;;;;9.02;6.13;;;16.50;71.00;;;;;;5039498;28;21476;-86
2021/10/25 14:12:27;;;;;;;14.90;6.43;;;16.50;70.90;;;;;;5054050;28;20184;-87
2021/10/25 14:15:04;;;;;;;8.15;4.90;;;16.60;70.90;;;;;;5049382;28;20660;-86
2021/10/25 14:17:30;;;;;;;7.07;5.10;;;16.50;70.20;;;;;;5046732;28;20535;-86
2021/10/25 14:19:56;;;;;;;6.32;4.97;;;16.70;70.10;;;;;;5054052;28;20211;-86
2021/10/25 14:22:21;;;;;;;5.97;5.20;;;16.70;70.40;;;;;;5055550;28;20181;-86
2021/10/25 14:24:47;;;;;;;8.97;5.53;;;16.50;70.70;;;;;;5053152;28;20209;-86